Thunder radar more information blitzortung!


Radar de pluja more information rain snow radar


Visita la nostra xarxa de llocs de meteo:

Template documentation
and downloads

And another site



Wind From: 11-12-2017 11:00 Until: 14:59 warning for: Wind Level: Yellow info button

Pagina Historial Weather Underground text

Diari Resum Marc 19, 2016 Unitats:  Mètric    Imperial   Tant
« Previous Dia
SegĂźent Dia »
Diari Setmana Mensual Anual Personalitzada
  Maxima: Minima: Media:
Temperatura: 12.3 °C 8.4 °C 10.3 °C
Punt de rosada: 9.9 °C 6.0 °C 7.9 °C
Humitat: 90 % 81 % 85 %
Wind Speed: 11.9 km/h 0.0 km/h 4.9 km/h
RĂ fegues de vent: 11.9 km/h - -
Vent:- - ENE
Pression baro: 1018.8 hPa 1013.8 hPa -
Precipitacions: 0.0 mm    
Historical Graphs
 
 
Dades de taula per Marc 19, 2016
Temps Temperatura Punt de rosada Pression baro Vent Wind Speed RĂ fegues de vent Humitat Rainfall Rate (Hourly)
00:30 8.4 °C 6.0 °C 1016.8 hPa Calm     85 % 0.0 mm
00:40 8.4 °C 6.0 °C 1016.8 hPa Calm   3.2 km/h 85 % 0.0 mm
00:50 8.4 °C 6.0 °C 1016.8 hPa Calm   1.6 km/h 85 % 0.0 mm
01:00 8.4 °C 6.0 °C 1017.8 hPa Calm   1.6 km/h 85 % 0.0 mm
01:10 8.4 °C 6.0 °C 1017.8 hPa Calm   1.6 km/h 85 % 0.0 mm
01:20 8.5 °C 6.3 °C 1017.8 hPa North 1.6 km/h 3.2 km/h 86 % 0.0 mm
01:30 8.5 °C 6.3 °C 1017.8 hPa NNE 3.2 km/h 3.2 km/h 86 % 0.0 mm
01:40 8.5 °C 6.3 °C 1017.8 hPa NE 3.2 km/h 3.2 km/h 86 % 0.0 mm
01:50 8.6 °C 6.4 °C 1017.8 hPa NE 3.2 km/h 4.8 km/h 86 % 0.0 mm
02:00 8.6 °C 6.4 °C 1017.8 hPa Calm   3.2 km/h 86 % 0.0 mm
02:10 8.7 °C 6.7 °C 1017.8 hPa Calm   1.6 km/h 87 % 0.0 mm
02:20 8.7 °C 6.7 °C 1017.8 hPa ENE 1.6 km/h 1.6 km/h 87 % 0.0 mm
02:30 8.7 °C 6.5 °C 1017.8 hPa ENE 1.6 km/h 3.2 km/h 86 % 0.0 mm
02:40 8.8 °C 6.6 °C 1017.8 hPa NE 3.2 km/h 3.2 km/h 86 % 0.0 mm
02:50 8.8 °C 6.6 °C 1017.8 hPa Calm   3.2 km/h 86 % 0.0 mm
03:00 8.9 °C 6.7 °C 1017.8 hPa NNE 1.6 km/h 3.2 km/h 86 % 0.0 mm
03:10 9.0 °C 6.8 °C 1017.8 hPa NE 1.6 km/h 1.6 km/h 86 % 0.0 mm
03:20 9.0 °C 6.8 °C 1017.8 hPa Calm   3.2 km/h 86 % 0.0 mm
03:30 9.0 °C 6.8 °C 1016.8 hPa NE 1.6 km/h 3.2 km/h 86 % 0.0 mm
03:40 9.0 °C 6.8 °C 1016.8 hPa NNE 1.6 km/h 3.2 km/h 86 % 0.0 mm
03:50 9.0 °C 6.8 °C 1016.8 hPa Calm   3.2 km/h 86 % 0.0 mm
04:00 9.1 °C 6.9 °C 1017.8 hPa NE 1.6 km/h 4.8 km/h 86 % 0.0 mm
04:10 9.2 °C 7.0 °C 1017.8 hPa NE 1.6 km/h 3.2 km/h 86 % 0.0 mm
04:20 9.2 °C 7.0 °C 1017.8 hPa NE 1.6 km/h 1.6 km/h 86 % 0.0 mm
10:26 9.2 °C 7.0 °C 1017.8 hPa NNE 1.9 km/h 2.3 km/h 86 % 0.0 mm
10:28 9.2 °C 7.0 °C 1017.8 hPa Calm     86 % 0.0 mm
10:38 9.4 °C 7.3 °C 1017.8 hPa Calm     87 % 0.0 mm
10:43 9.4 °C 7.3 °C 1017.8 hPa NE 2.3 km/h 2.3 km/h 87 % 0.0 mm
10:48 9.5 °C 7.4 °C 1017.8 hPa NE 1.9 km/h 1.9 km/h 87 % 0.0 mm
10:53 9.6 °C 7.6 °C 1017.8 hPa Calm     87 % 0.0 mm
11:08 9.7 °C 7.7 °C 1016.8 hPa NNE 3.9 km/h 3.9 km/h 87 % 0.0 mm
11:13 9.8 °C 7.6 °C 1016.8 hPa ENE 3.7 km/h 3.7 km/h 86 % 0.0 mm
11:18 9.9 °C 7.8 °C 1016.8 hPa NE 3.7 km/h 3.7 km/h 87 % 0.0 mm
11:23 10.0 °C 7.9 °C 1016.8 hPa ENE 3.7 km/h 3.7 km/h 87 % 0.0 mm
11:28 10.0 °C 7.8 °C 1016.8 hPa NNE 4.7 km/h 4.7 km/h 86 % 0.0 mm
11:33 10.0 °C 7.8 °C 1016.8 hPa NE 5.6 km/h 5.6 km/h 86 % 0.0 mm
11:38 10.1 °C 7.9 °C 1016.8 hPa NE 3.7 km/h 3.7 km/h 86 % 0.0 mm
11:43 10.1 °C 7.9 °C 1017.8 hPa ENE 4.2 km/h 4.2 km/h 86 % 0.0 mm
11:48 10.1 °C 7.9 °C 1017.8 hPa NNE 3.7 km/h 3.7 km/h 86 % 0.0 mm
11:53 10.1 °C 7.9 °C 1017.8 hPa NNE 3.7 km/h 3.7 km/h 86 % 0.0 mm
11:58 10.0 °C 7.8 °C 1018.8 hPa NNE 3.7 km/h 3.7 km/h 86 % 0.0 mm
12:03 10.0 °C 7.8 °C 1018.8 hPa ENE 3.7 km/h 3.7 km/h 86 % 0.0 mm
12:08 10.0 °C 7.8 °C 1018.8 hPa ENE 5.6 km/h 5.6 km/h 86 % 0.0 mm
12:13 10.0 °C 7.8 °C 1017.8 hPa NE 3.9 km/h 3.9 km/h 86 % 0.0 mm
12:23 9.9 °C 7.8 °C 1017.8 hPa ENE 3.7 km/h 3.7 km/h 87 % 0.0 mm
12:28 9.9 °C 7.8 °C 1017.8 hPa NNE 5.6 km/h 5.6 km/h 87 % 0.0 mm
12:33 9.9 °C 7.8 °C 1017.8 hPa ENE 3.7 km/h 3.7 km/h 87 % 0.0 mm
12:38 9.9 °C 8.0 °C 1017.8 hPa ENE 3.7 km/h 3.7 km/h 88 % 0.0 mm
12:43 9.9 °C 8.0 °C 1017.8 hPa ENE 5.6 km/h 5.6 km/h 88 % 0.0 mm
12:48 10.0 °C 8.1 °C 1017.8 hPa NE 3.7 km/h 3.7 km/h 88 % 0.0 mm
12:53 10.0 °C 8.1 °C 1017.8 hPa NE 1.9 km/h 2.6 km/h 88 % 0.0 mm
12:58 10.0 °C 8.1 °C 1017.8 hPa NNE 3.7 km/h 3.7 km/h 88 % 0.0 mm
13:03 9.9 °C 8.0 °C 1017.8 hPa NNE 5.6 km/h 5.6 km/h 88 % 0.0 mm
13:08 9.9 °C 8.0 °C 1017.8 hPa NE 7.4 km/h 7.4 km/h 88 % 0.0 mm
13:13 9.8 °C 7.9 °C 1017.8 hPa ENE 3.7 km/h 3.9 km/h 88 % 0.0 mm
13:18 9.8 °C 7.9 °C 1017.8 hPa NNE 3.7 km/h 3.7 km/h 88 % 0.0 mm
13:33 9.9 °C 8.0 °C 1017.8 hPa NE 3.7 km/h 3.7 km/h 88 % 0.0 mm
13:38 9.8 °C 7.9 °C 1017.8 hPa NE 3.7 km/h 3.7 km/h 88 % 0.0 mm
13:43 9.8 °C 8.1 °C 1017.8 hPa Calm     89 % 0.0 mm
13:48 9.8 °C 7.9 °C 1017.8 hPa NNE 3.7 km/h   88 % 0.0 mm
13:53 9.8 °C 8.1 °C 1017.8 hPa ENE 3.7 km/h 3.7 km/h 89 % 0.0 mm
13:58 9.8 °C 8.1 °C 1017.8 hPa NNE 3.7 km/h 3.7 km/h 89 % 0.0 mm
14:03 9.9 °C 8.2 °C 1017.8 hPa ENE 6.1 km/h 6.1 km/h 89 % 0.0 mm
14:08 9.9 °C 8.2 °C 1017.8 hPa NE 7.4 km/h 7.4 km/h 89 % 0.0 mm
14:13 9.9 °C 8.2 °C 1016.8 hPa NNE 5.8 km/h 5.8 km/h 89 % 0.0 mm
14:18 9.9 °C 8.2 °C 1016.8 hPa NNE 5.6 km/h 5.6 km/h 89 % 0.0 mm
14:23 10.0 °C 8.3 °C 1016.8 hPa NNE 5.8 km/h 5.8 km/h 89 % 0.0 mm
14:28 10.1 °C 8.4 °C 1016.8 hPa NNE 7.4 km/h 7.4 km/h 89 % 0.0 mm
14:33 10.2 °C 8.4 °C 1016.8 hPa NNE 5.6 km/h 5.6 km/h 89 % 0.0 mm
14:38 10.3 °C 8.7 °C 1015.8 hPa NE 7.4 km/h 7.4 km/h 90 % 0.0 mm
14:43 10.4 °C 8.7 °C 1015.8 hPa NE 5.6 km/h 5.6 km/h 89 % 0.0 mm
14:48 10.6 °C 8.9 °C 1015.8 hPa NNE 6.4 km/h 6.4 km/h 89 % 0.0 mm
14:53 10.8 °C 9.1 °C 1015.8 hPa NNE 7.9 km/h 7.9 km/h 89 % 0.0 mm
14:58 10.9 °C 9.2 °C 1015.8 hPa ENE 7.9 km/h 7.9 km/h 89 % 0.0 mm
15:03 11.0 °C 9.3 °C 1015.8 hPa NE 7.4 km/h 7.4 km/h 89 % 0.0 mm
15:08 11.3 °C 9.6 °C 1015.8 hPa ESE 9.0 km/h 9.0 km/h 89 % 0.0 mm
15:13 11.4 °C 9.5 °C 1015.8 hPa ENE 9.3 km/h 9.3 km/h 88 % 0.0 mm
15:18 11.5 °C 9.6 °C 1015.8 hPa NE 7.4 km/h 7.4 km/h 88 % 0.0 mm
15:23 11.5 °C 9.6 °C 1015.8 hPa East 4.2 km/h 4.2 km/h 88 % 0.0 mm
15:28 11.6 °C 9.7 °C 1015.8 hPa ESE 5.6 km/h 5.8 km/h 88 % 0.0 mm
15:38 11.8 °C 9.7 °C 1015.8 hPa ENE 3.7 km/h 3.7 km/h 87 % 0.0 mm
15:43 12.0 °C 9.9 °C 1015.8 hPa ESE 5.6 km/h 5.6 km/h 87 % 0.0 mm
15:48 12.1 °C 9.8 °C 1015.8 hPa ESE 5.8 km/h 5.8 km/h 86 % 0.0 mm
15:53 12.0 °C 9.6 °C 1015.8 hPa ESE 7.4 km/h 7.4 km/h 85 % 0.0 mm
15:58 12.1 °C 9.7 °C 1014.8 hPa NE 3.7 km/h 3.7 km/h 85 % 0.0 mm
16:08 12.3 °C 9.7 °C 1014.8 hPa NE 7.4 km/h 7.4 km/h 84 % 0.0 mm
16:13 12.2 °C 9.6 °C 1015.8 hPa ENE 7.4 km/h 7.4 km/h 84 % 0.0 mm
16:18 12.1 °C 9.5 °C 1015.8 hPa NE 7.4 km/h 7.4 km/h 84 % 0.0 mm
16:23 12.0 °C 9.4 °C 1015.8 hPa ENE 5.6 km/h 5.6 km/h 84 % 0.0 mm
16:28 12.0 °C 9.4 °C 1015.8 hPa ENE 9.3 km/h 9.3 km/h 84 % 0.0 mm
16:33 11.9 °C 9.3 °C 1015.8 hPa East 7.9 km/h 7.9 km/h 84 % 0.0 mm
16:43 12.0 °C 9.4 °C 1015.8 hPa East 5.6 km/h 5.6 km/h 84 % 0.0 mm
16:48 12.2 °C 9.6 °C 1015.8 hPa ESE 3.7 km/h 3.7 km/h 84 % 0.0 mm
16:53 12.2 °C 9.6 °C 1015.8 hPa NNE 9.3 km/h 9.3 km/h 84 % 0.0 mm
16:58 12.2 °C 9.6 °C 1015.8 hPa ENE 9.3 km/h 9.3 km/h 84 % 0.0 mm
17:03 12.1 °C 9.5 °C 1015.8 hPa ENE 9.3 km/h 9.3 km/h 84 % 0.0 mm
17:08 12.0 °C 9.2 °C 1015.8 hPa ENE 7.4 km/h 7.4 km/h 83 % 0.0 mm
17:13 12.0 °C 9.2 °C 1014.8 hPa ENE 5.6 km/h 5.6 km/h 83 % 0.0 mm
17:18 12.0 °C 9.4 °C 1014.8 hPa East 5.6 km/h 5.6 km/h 84 % 0.0 mm
17:23 12.0 °C 9.4 °C 1014.8 hPa East 11.1 km/h 11.1 km/h 84 % 0.0 mm
17:28 12.0 °C 9.4 °C 1015.8 hPa East 9.5 km/h 9.5 km/h 84 % 0.0 mm
17:33 12.0 °C 9.4 °C 1015.8 hPa South 5.6 km/h 5.6 km/h 84 % 0.0 mm
17:38 12.0 °C 9.4 °C 1015.8 hPa East 9.3 km/h 9.3 km/h 84 % 0.0 mm
17:43 12.0 °C 9.2 °C 1015.8 hPa ENE 8.7 km/h 8.7 km/h 83 % 0.0 mm
17:48 12.0 °C 9.2 °C 1015.8 hPa ENE 7.4 km/h 7.4 km/h 83 % 0.0 mm
17:53 11.9 °C 9.1 °C 1015.8 hPa East 5.6 km/h 5.6 km/h 83 % 0.0 mm
17:58 11.8 °C 8.8 °C 1015.8 hPa ESE 7.4 km/h 7.4 km/h 82 % 0.0 mm
18:03 11.8 °C 8.8 °C 1015.8 hPa NNE 9.3 km/h 9.3 km/h 82 % 0.0 mm
18:08 11.7 °C 8.7 °C 1015.8 hPa ESE 9.3 km/h 9.3 km/h 82 % 0.0 mm
18:13 11.7 °C 8.7 °C 1015.8 hPa ENE 7.4 km/h 7.4 km/h 82 % 0.0 mm
18:18 11.6 °C 8.4 °C 1015.8 hPa East 3.7 km/h 3.7 km/h 81 % 0.0 mm
18:23 11.6 °C 8.4 °C 1015.8 hPa ENE 6.1 km/h 6.1 km/h 81 % 0.0 mm
18:28 11.5 °C 8.3 °C 1015.8 hPa ESE 5.6 km/h 5.6 km/h 81 % 0.0 mm
18:33 11.5 °C 8.3 °C 1015.8 hPa ENE 11.1 km/h 11.1 km/h 81 % 0.0 mm
18:38 11.5 °C 8.3 °C 1015.8 hPa East 3.7 km/h 3.7 km/h 81 % 0.0 mm
18:43 11.4 °C 8.3 °C 1014.8 hPa ESE 5.6 km/h 5.6 km/h 81 % 0.0 mm
18:48 11.4 °C 8.3 °C 1014.8 hPa ENE 9.3 km/h 9.3 km/h 81 % 0.0 mm
18:53 11.4 °C 8.3 °C 1015.8 hPa ESE 7.4 km/h 7.4 km/h 81 % 0.0 mm
18:58 11.4 °C 8.3 °C 1015.8 hPa East 5.6 km/h 5.6 km/h 81 % 0.0 mm
19:03 11.3 °C 8.2 °C 1015.8 hPa ENE 5.6 km/h 5.6 km/h 81 % 0.0 mm
19:08 11.3 °C 8.3 °C 1015.8 hPa ESE 3.7 km/h 3.7 km/h 82 % 0.0 mm
19:13 11.3 °C 8.3 °C 1015.8 hPa ESE 9.7 km/h 9.7 km/h 82 % 0.0 mm
19:18 11.3 °C 8.3 °C 1015.8 hPa ENE 7.6 km/h 7.6 km/h 82 % 0.0 mm
19:23 11.2 °C 8.2 °C 1015.8 hPa ENE 5.8 km/h 5.8 km/h 82 % 0.0 mm
19:28 11.2 °C 8.2 °C 1015.8 hPa NE 7.4 km/h 7.4 km/h 82 % 0.0 mm
19:33 11.1 °C 8.2 °C 1015.8 hPa ESE 9.3 km/h 9.3 km/h 82 % 0.0 mm
19:38 11.0 °C 8.1 °C 1015.8 hPa ENE 3.9 km/h 3.9 km/h 82 % 0.0 mm
19:43 10.9 °C 7.9 °C 1015.8 hPa East 11.1 km/h 11.1 km/h 82 % 0.0 mm
19:48 10.8 °C 7.8 °C 1015.8 hPa East 5.6 km/h 5.6 km/h 82 % 0.0 mm
19:53 10.7 °C 7.8 °C 1015.8 hPa ENE 7.4 km/h 7.4 km/h 82 % 0.0 mm
19:58 10.7 °C 7.8 °C 1015.8 hPa ESE 11.9 km/h 11.9 km/h 82 % 0.0 mm
20:03 10.7 °C 7.8 °C 1015.8 hPa ENE 5.6 km/h 5.6 km/h 82 % 0.0 mm
20:08 10.6 °C 7.7 °C 1015.8 hPa NNE 5.6 km/h 5.6 km/h 82 % 0.0 mm
20:13 10.6 °C 7.7 °C 1015.8 hPa NE 5.6 km/h 5.6 km/h 82 % 0.0 mm
20:18 10.5 °C 7.7 °C 1015.8 hPa East 3.7 km/h 3.7 km/h 83 % 0.0 mm
20:28 10.4 °C 7.6 °C 1016.8 hPa NNE 1.9 km/h   83 % 0.0 mm
20:33 10.4 °C 7.6 °C 1016.8 hPa ENE 2.3 km/h 2.3 km/h 83 % 0.0 mm
20:38 10.3 °C 7.6 °C 1016.8 hPa NE 3.9 km/h 3.9 km/h 83 % 0.0 mm
20:40 9.4 °C 7.3 °C 1015.8 hPa Calm     87 % 0.0 mm
20:43 10.3 °C 7.6 °C 1016.8 hPa NE 5.6 km/h 5.6 km/h 83 % 0.0 mm
20:48 10.3 °C 7.6 °C 1016.8 hPa NE 7.4 km/h 7.4 km/h 83 % 0.0 mm
20:50 9.3 °C 7.2 °C 1015.8 hPa ENE 1.6 km/h 3.2 km/h 87 % 0.0 mm
20:58 10.4 °C 7.6 °C 1016.8 hPa NNE 5.6 km/h 5.6 km/h 83 % 0.0 mm
21:00 9.2 °C 7.2 °C 1015.8 hPa NE 3.2 km/h 6.4 km/h 87 % 0.0 mm
21:03 10.4 °C 7.6 °C 1016.8 hPa NNE 7.4 km/h 7.4 km/h 83 % 0.0 mm
21:08 10.4 °C 7.6 °C 1017.8 hPa ENE 5.6 km/h 5.6 km/h 83 % 0.0 mm
21:10 9.2 °C 7.3 °C 1014.8 hPa NNE 3.2 km/h 4.8 km/h 88 % 0.0 mm
21:13 10.4 °C 7.6 °C 1017.8 hPa NE 7.4 km/h 7.4 km/h 83 % 0.0 mm
21:18 10.3 °C 7.6 °C 1017.8 hPa NNE 7.4 km/h 7.4 km/h 83 % 0.0 mm
21:20 9.1 °C 7.2 °C 1014.8 hPa NNE 3.2 km/h 4.8 km/h 88 % 0.0 mm
21:23 10.3 °C 7.6 °C 1016.8 hPa NE 5.6 km/h 5.6 km/h 83 % 0.0 mm
21:28 10.3 °C 7.6 °C 1016.8 hPa NNE 6.1 km/h 6.1 km/h 83 % 0.0 mm
21:30 9.1 °C 7.2 °C 1014.8 hPa NE 3.2 km/h 6.4 km/h 88 % 0.0 mm
21:33 10.3 °C 7.6 °C 1016.8 hPa NNE 5.8 km/h 5.8 km/h 83 % 1.0 mm
21:38 10.4 °C 7.6 °C 1016.8 hPa NNE 5.6 km/h 5.6 km/h 83 % 1.0 mm
21:40 9.0 °C 7.3 °C 1014.8 hPa NNE 3.2 km/h 6.4 km/h 89 % 0.0 mm
21:43 10.4 °C 7.6 °C 1016.8 hPa ENE 5.6 km/h 5.6 km/h 83 % 1.0 mm
21:48 10.4 °C 7.6 °C 1016.8 hPa NNE 5.6 km/h 5.6 km/h 83 % 1.0 mm
21:50 9.0 °C 7.3 °C 1014.8 hPa Calm   1.6 km/h 89 % 0.0 mm
21:53 10.4 °C 7.6 °C 1016.8 hPa NNE 5.6 km/h 5.6 km/h 83 % 1.0 mm
21:58 10.4 °C 7.6 °C 1016.8 hPa NNE 7.4 km/h 7.4 km/h 83 % 1.0 mm
22:00 9.0 °C 7.3 °C 1014.8 hPa NNE 3.2 km/h 4.8 km/h 89 % 0.0 mm
22:03 10.4 °C 7.6 °C 1016.8 hPa NE 7.4 km/h 7.4 km/h 83 % 1.0 mm
22:08 10.4 °C 7.6 °C 1016.8 hPa ENE 9.3 km/h 9.3 km/h 83 % 1.0 mm
22:13 10.4 °C 7.6 °C 1016.8 hPa North 7.4 km/h 7.4 km/h 83 % 1.0 mm
22:18 10.4 °C 7.6 °C 1016.8 hPa ENE 7.4 km/h 7.4 km/h 83 % 1.0 mm
22:20 9.1 °C 7.6 °C 1013.8 hPa Calm     90 % 0.0 mm
22:23 10.4 °C 7.6 °C 1016.8 hPa NNE 7.4 km/h 7.4 km/h 83 % 1.0 mm
22:28 10.4 °C 7.6 °C 1016.8 hPa ENE 3.7 km/h 4.2 km/h 83 % 1.0 mm
22:30 9.1 °C 7.4 °C 1014.8 hPa NW 1.6 km/h 3.2 km/h 89 % 0.0 mm
22:33 10.4 °C 7.6 °C 1016.8 hPa NNE 6.4 km/h 6.4 km/h 83 % 0.0 mm
22:38 10.4 °C 7.6 °C 1016.8 hPa NE 6.9 km/h 6.9 km/h 83 % 0.0 mm
22:39 10.4 °C 7.6 °C 1016.8 hPa NNE 5.0 km/h 5.0 km/h 83 % 0.0 mm
22:40 9.1 °C 7.6 °C 1014.8 hPa Calm   3.2 km/h 90 % 0.0 mm
22:44 10.4 °C 7.6 °C 1016.8 hPa NNE 5.6 km/h 5.6 km/h 83 % 0.0 mm
22:49 10.4 °C 7.6 °C 1016.8 hPa ENE 5.6 km/h 5.6 km/h 83 % 0.0 mm
22:50 9.0 °C 7.3 °C 1014.8 hPa West 1.6 km/h 6.4 km/h 89 % 0.0 mm
22:54 10.4 °C 7.6 °C 1016.8 hPa East 5.3 km/h 5.3 km/h 83 % 0.0 mm
23:00 9.0 °C 7.3 °C 1014.8 hPa Calm   1.6 km/h 89 % 0.0 mm
23:04 10.3 °C 7.6 °C 1016.8 hPa ENE 3.7 km/h 3.9 km/h 83 % 0.0 mm
23:09 10.3 °C 7.6 °C 1016.8 hPa ENE 3.9 km/h 4.7 km/h 83 % 0.0 mm
23:10 8.8 °C 7.1 °C 1014.8 hPa NNE 4.8 km/h 9.7 km/h 89 % 0.0 mm
23:14 10.2 °C 7.4 °C 1016.8 hPa NNE 5.6 km/h 5.6 km/h 83 % 0.0 mm
23:19 10.2 °C 7.4 °C 1016.8 hPa ENE 5.6 km/h 5.6 km/h 83 % 0.0 mm
23:20 8.6 °C 6.9 °C 1014.8 hPa NNE 3.2 km/h 6.4 km/h 89 % 0.0 mm
23:24 10.2 °C 7.4 °C 1015.8 hPa NE 5.6 km/h 5.6 km/h 83 % 0.0 mm
23:29 10.2 °C 7.4 °C 1015.8 hPa NE 7.4 km/h 7.4 km/h 83 % 0.0 mm
23:30 8.6 °C 6.9 °C 1014.8 hPa NE 1.6 km/h 6.4 km/h 89 % 0.0 mm
23:34 10.2 °C 7.4 °C 1015.8 hPa ENE 9.3 km/h 9.3 km/h 83 % 0.0 mm
23:39 10.1 °C 7.3 °C 1015.8 hPa ENE 5.6 km/h 5.6 km/h 83 % 0.0 mm
23:40 8.5 °C 6.8 °C 1014.8 hPa NNE 3.2 km/h 3.2 km/h 89 % 0.0 mm
23:44 10.1 °C 7.3 °C 1015.8 hPa ESE 3.7 km/h 3.7 km/h 83 % 0.0 mm
23:50 8.5 °C 6.8 °C 1014.8 hPa NNE 1.6 km/h 4.8 km/h 89 % 0.0 mm
Meteo Sesrovires
Elogis d' Weather Underground - 3.5 mb

Guio original per  Jim McMurry - jmcmurry@mwt.net Adaptat per a la plantilla per  Wim van der Kuil - Leuven-Template.eu

Trobareu la nostra informacio del temps tambe a:

Weather Underground

AWEKAS